sensor_id;sensor_type;location;lat;lon;timestamp;P1;durP1;ratioP1;P2;durP2;ratioP2
68866;SDS011;56451;44.804;20.476;2022-09-27T00:02:21;4.90;;;3.88;;
68866;SDS011;56451;44.804;20.476;2022-09-27T00:04:47;5.87;;;4.40;;
68866;SDS011;56451;44.804;20.476;2022-09-27T00:07:13;7.47;;;4.78;;
68866;SDS011;56451;44.804;20.476;2022-09-27T00:09:39;6.38;;;4.90;;
68866;SDS011;56451;44.804;20.476;2022-09-27T00:12:05;7.23;;;4.73;;
68866;SDS011;56451;44.804;20.476;2022-09-27T00:14:31;6.70;;;4.63;;
68866;SDS011;56451;44.804;20.476;2022-09-27T00:16:57;7.53;;;4.63;;
68866;SDS011;56451;44.804;20.476;2022-09-27T00:19:23;4.80;;;4.20;;
68866;SDS011;56451;44.804;20.476;2022-09-27T00:21:50;6.77;;;4.53;;
68866;SDS011;56451;44.804;20.476;2022-09-27T00:24:17;8.07;;;4.90;;
68866;SDS011;56451;44.804;20.476;2022-09-27T00:26:45;6.40;;;5.07;;
68866;SDS011;56451;44.804;20.476;2022-09-27T00:29:11;6.97;;;5.00;;
68866;SDS011;56451;44.804;20.476;2022-09-27T00:31:39;9.80;;;6.05;;
68866;SDS011;56451;44.804;20.476;2022-09-27T00:34:05;8.37;;;6.27;;
68866;SDS011;56451;44.804;20.476;2022-09-27T00:36:32;11.57;;;8.05;;
68866;SDS011;56451;44.804;20.476;2022-09-27T00:38:59;12.05;;;8.32;;
68866;SDS011;56451;44.804;20.476;2022-09-27T00:41:27;11.32;;;8.65;;
68866;SDS011;56451;44.804;20.476;2022-09-27T00:43:57;15.70;;;10.70;;
68866;SDS011;56451;44.804;20.476;2022-09-27T00:46:30;18.55;;;11.70;;
68866;SDS011;56451;44.804;20.476;2022-09-27T00:51:53;23.70;;;13.57;;
68866;SDS011;56451;44.804;20.476;2022-09-27T00:54:23;21.40;;;12.93;;
68866;SDS011;56451;44.804;20.476;2022-09-27T00:56:52;20.33;;;13.03;;
68866;SDS011;56451;44.804;20.476;2022-09-27T00:59:22;19.58;;;12.85;;
68866;SDS011;56451;44.804;20.476;2022-09-27T01:01:56;24.55;;;13.50;;
68866;SDS011;56451;44.804;20.476;2022-09-27T01:04:23;32.05;;;13.10;;
68866;SDS011;56451;44.804;20.476;2022-09-27T01:06:52;29.40;;;13.55;;
68866;SDS011;56451;44.804;20.476;2022-09-27T01:09:19;28.67;;;13.43;;
68866;SDS011;56451;44.804;20.476;2022-09-27T01:12:08;34.13;;;12.82;;
68866;SDS011;56451;44.804;20.476;2022-09-27T01:20:20;17.23;;;11.70;;
68866;SDS011;56451;44.804;20.476;2022-09-27T01:28:34;19.90;;;12.75;;
68866;SDS011;56451;44.804;20.476;2022-09-27T01:31:08;16.63;;;11.93;;
68866;SDS011;56451;44.804;20.476;2022-09-27T01:42:47;17.92;;;12.23;;
68866;SDS011;56451;44.804;20.476;2022-09-27T01:45:25;19.38;;;12.93;;
68866;SDS011;56451;44.804;20.476;2022-09-27T01:48:38;22.48;;;13.13;;
68866;SDS011;56451;44.804;20.476;2022-09-27T01:54:03;20.40;;;12.90;;
68866;SDS011;56451;44.804;20.476;2022-09-27T01:56:55;20.08;;;13.07;;
68866;SDS011;56451;44.804;20.476;2022-09-27T01:59:30;18.25;;;13.25;;
68866;SDS011;56451;44.804;20.476;2022-09-27T02:02:22;17.77;;;11.73;;
68866;SDS011;56451;44.804;20.476;2022-09-27T02:05:30;17.47;;;11.77;;
68866;SDS011;56451;44.804;20.476;2022-09-27T02:08:58;19.38;;;12.25;;
68866;SDS011;56451;44.804;20.476;2022-09-27T02:11:19;19.30;;;12.85;;
68866;SDS011;56451;44.804;20.476;2022-09-27T02:13:57;18.90;;;12.93;;
68866;SDS011;56451;44.804;20.476;2022-09-27T02:16:49;18.85;;;13.07;;
68866;SDS011;56451;44.804;20.476;2022-09-27T02:22:33;19.73;;;13.23;;
68866;SDS011;56451;44.804;20.476;2022-09-27T02:25:09;17.73;;;12.45;;
68866;SDS011;56451;44.804;20.476;2022-09-27T02:30:34;19.70;;;13.88;;
68866;SDS011;56451;44.804;20.476;2022-09-27T02:33:14;20.77;;;14.50;;
68866;SDS011;56451;44.804;20.476;2022-09-27T02:35:41;22.98;;;14.57;;
68866;SDS011;56451;44.804;20.476;2022-09-27T02:38:07;29.50;;;17.77;;
68866;SDS011;56451;44.804;20.476;2022-09-27T02:40:34;27.65;;;16.88;;
68866;SDS011;56451;44.804;20.476;2022-09-27T02:43:06;28.27;;;17.10;;
68866;SDS011;56451;44.804;20.476;2022-09-27T02:45:40;28.37;;;16.10;;
68866;SDS011;56451;44.804;20.476;2022-09-27T02:48:38;31.70;;;17.80;;
68866;SDS011;56451;44.804;20.476;2022-09-27T02:51:46;36.80;;;19.60;;
68866;SDS011;56451;44.804;20.476;2022-09-27T02:54:38;34.63;;;18.65;;
68866;SDS011;56451;44.804;20.476;2022-09-27T03:03:53;29.65;;;16.58;;
68866;SDS011;56451;44.804;20.476;2022-09-27T03:06:29;33.63;;;18.20;;
68866;SDS011;56451;44.804;20.476;2022-09-27T03:08:56;37.08;;;18.05;;
68866;SDS011;56451;44.804;20.476;2022-09-27T03:11:22;36.88;;;19.13;;
68866;SDS011;56451;44.804;20.476;2022-09-27T03:13:48;35.73;;;17.17;;
68866;SDS011;56451;44.804;20.476;2022-09-27T03:16:15;31.48;;;17.67;;
68866;SDS011;56451;44.804;20.476;2022-09-27T03:18:56;39.47;;;17.58;;
68866;SDS011;56451;44.804;20.476;2022-09-27T03:21:41;35.55;;;17.35;;
68866;SDS011;56451;44.804;20.476;2022-09-27T03:24:08;36.13;;;17.65;;
68866;SDS011;56451;44.804;20.476;2022-09-27T03:26:33;41.10;;;18.60;;
68866;SDS011;56451;44.804;20.476;2022-09-27T03:28:59;36.30;;;18.05;;
68866;SDS011;56451;44.804;20.476;2022-09-27T03:31:26;30.77;;;16.38;;
68866;SDS011;56451;44.804;20.476;2022-09-27T03:34:12;36.20;;;16.83;;
68866;SDS011;56451;44.804;20.476;2022-09-27T03:36:38;34.50;;;17.63;;
68866;SDS011;56451;44.804;20.476;2022-09-27T03:39:04;32.58;;;16.08;;
68866;SDS011;56451;44.804;20.476;2022-09-27T03:41:30;33.13;;;16.77;;
68866;SDS011;56451;44.804;20.476;2022-09-27T03:43:57;31.77;;;16.05;;
68866;SDS011;56451;44.804;20.476;2022-09-27T03:46:24;29.70;;;16.10;;
68866;SDS011;56451;44.804;20.476;2022-09-27T03:48:50;35.47;;;17.85;;
68866;SDS011;56451;44.804;20.476;2022-09-27T03:51:17;46.47;;;16.65;;
68866;SDS011;56451;44.804;20.476;2022-09-27T03:53:43;31.80;;;16.05;;
68866;SDS011;56451;44.804;20.476;2022-09-27T03:56:09;31.52;;;16.23;;
68866;SDS011;56451;44.804;20.476;2022-09-27T03:58:35;31.90;;;15.90;;
68866;SDS011;56451;44.804;20.476;2022-09-27T04:01:01;29.35;;;15.57;;
68866;SDS011;56451;44.804;20.476;2022-09-27T04:03:28;26.02;;;15.32;;
68866;SDS011;56451;44.804;20.476;2022-09-27T04:06:21;24.48;;;14.50;;
68866;SDS011;56451;44.804;20.476;2022-09-27T04:08:48;25.33;;;14.60;;
68866;SDS011;56451;44.804;20.476;2022-09-27T04:11:15;21.60;;;13.70;;
68866;SDS011;56451;44.804;20.476;2022-09-27T04:13:44;24.42;;;13.98;;
68866;SDS011;56451;44.804;20.476;2022-09-27T04:16:14;23.10;;;13.52;;
68866;SDS011;56451;44.804;20.476;2022-09-27T04:19:13;19.35;;;12.45;;
68866;SDS011;56451;44.804;20.476;2022-09-27T04:22:02;20.92;;;12.70;;
68866;SDS011;56451;44.804;20.476;2022-09-27T04:24:28;19.33;;;13.30;;
68866;SDS011;56451;44.804;20.476;2022-09-27T04:27:14;21.50;;;13.65;;
68866;SDS011;56451;44.804;20.476;2022-09-27T04:29:41;23.65;;;13.07;;
68866;SDS011;56451;44.804;20.476;2022-09-27T04:32:26;19.83;;;13.10;;
68866;SDS011;56451;44.804;20.476;2022-09-27T04:35:13;22.35;;;14.07;;
68866;SDS011;56451;44.804;20.476;2022-09-27T04:37:57;19.40;;;12.40;;
68866;SDS011;56451;44.804;20.476;2022-09-27T04:40:24;21.25;;;12.90;;
68866;SDS011;56451;44.804;20.476;2022-09-27T04:42:50;20.25;;;13.23;;
68866;SDS011;56451;44.804;20.476;2022-09-27T04:45:17;20.27;;;12.77;;
68866;SDS011;56451;44.804;20.476;2022-09-27T04:47:44;18.48;;;12.07;;
68866;SDS011;56451;44.804;20.476;2022-09-27T04:50:11;22.57;;;12.73;;
68866;SDS011;56451;44.804;20.476;2022-09-27T04:52:38;21.13;;;13.30;;
68866;SDS011;56451;44.804;20.476;2022-09-27T04:55:05;23.05;;;13.73;;
68866;SDS011;56451;44.804;20.476;2022-09-27T04:57:32;20.35;;;13.50;;
68866;SDS011;56451;44.804;20.476;2022-09-27T04:59:59;19.95;;;13.18;;
68866;SDS011;56451;44.804;20.476;2022-09-27T05:02:26;22.90;;;13.40;;
68866;SDS011;56451;44.804;20.476;2022-09-27T05:05:21;19.92;;;11.95;;
68866;SDS011;56451;44.804;20.476;2022-09-27T05:07:48;22.35;;;14.00;;
68866;SDS011;56451;44.804;20.476;2022-09-27T05:10:26;22.23;;;13.18;;
68866;SDS011;56451;44.804;20.476;2022-09-27T05:12:52;20.77;;;12.90;;
68866;SDS011;56451;44.804;20.476;2022-09-27T05:15:18;19.20;;;12.23;;
68866;SDS011;56451;44.804;20.476;2022-09-27T05:18:19;21.02;;;12.73;;
68866;SDS011;56451;44.804;20.476;2022-09-27T05:21:23;17.98;;;11.20;;
68866;SDS011;56451;44.804;20.476;2022-09-27T05:23:50;16.70;;;11.20;;
68866;SDS011;56451;44.804;20.476;2022-09-27T05:26:16;18.30;;;11.13;;
68866;SDS011;56451;44.804;20.476;2022-09-27T05:28:42;18.48;;;11.70;;
68866;SDS011;56451;44.804;20.476;2022-09-27T05:31:08;16.33;;;10.88;;
68866;SDS011;56451;44.804;20.476;2022-09-27T05:33:38;16.42;;;11.23;;
68866;SDS011;56451;44.804;20.476;2022-09-27T05:36:23;17.57;;;11.20;;
68866;SDS011;56451;44.804;20.476;2022-09-27T05:38:49;16.77;;;10.70;;
68866;SDS011;56451;44.804;20.476;2022-09-27T05:41:18;12.20;;;8.70;;
68866;SDS011;56451;44.804;20.476;2022-09-27T05:43:44;9.98;;;7.20;;
68866;SDS011;56451;44.804;20.476;2022-09-27T05:46:12;8.45;;;6.50;;
68866;SDS011;56451;44.804;20.476;2022-09-27T05:48:40;8.90;;;5.77;;
68866;SDS011;56451;44.804;20.476;2022-09-27T05:51:06;8.63;;;5.38;;
68866;SDS011;56451;44.804;20.476;2022-09-27T05:53:36;10.93;;;6.40;;
68866;SDS011;56451;44.804;20.476;2022-09-27T05:56:04;25.92;;;7.63;;
68866;SDS011;56451;44.804;20.476;2022-09-27T05:58:53;24.92;;;7.45;;
68866;SDS011;56451;44.804;20.476;2022-09-27T06:01:20;16.00;;;7.60;;
68866;SDS011;56451;44.804;20.476;2022-09-27T06:04:06;12.93;;;8.13;;
68866;SDS011;56451;44.804;20.476;2022-09-27T06:06:35;12.82;;;8.05;;
68866;SDS011;56451;44.804;20.476;2022-09-27T06:09:02;16.27;;;9.00;;
68866;SDS011;56451;44.804;20.476;2022-09-27T06:11:28;16.17;;;9.30;;
68866;SDS011;56451;44.804;20.476;2022-09-27T06:13:54;12.93;;;8.87;;
68866;SDS011;56451;44.804;20.476;2022-09-27T06:16:21;14.02;;;8.20;;
68866;SDS011;56451;44.804;20.476;2022-09-27T06:18:47;11.85;;;8.75;;
68866;SDS011;56451;44.804;20.476;2022-09-27T06:21:13;15.20;;;9.00;;
68866;SDS011;56451;44.804;20.476;2022-09-27T06:23:44;14.00;;;8.43;;
68866;SDS011;56451;44.804;20.476;2022-09-27T06:26:16;14.35;;;8.20;;
68866;SDS011;56451;44.804;20.476;2022-09-27T06:29:00;15.68;;;8.40;;
68866;SDS011;56451;44.804;20.476;2022-09-27T06:31:26;12.82;;;7.25;;
68866;SDS011;56451;44.804;20.476;2022-09-27T06:34:01;16.08;;;8.25;;
68866;SDS011;56451;44.804;20.476;2022-09-27T06:36:28;12.87;;;7.60;;
68866;SDS011;56451;44.804;20.476;2022-09-27T06:38:54;11.73;;;7.47;;
68866;SDS011;56451;44.804;20.476;2022-09-27T06:41:29;13.45;;;7.30;;
68866;SDS011;56451;44.804;20.476;2022-09-27T06:44:15;10.75;;;7.22;;
68866;SDS011;56451;44.804;20.476;2022-09-27T06:47:00;12.40;;;7.27;;
68866;SDS011;56451;44.804;20.476;2022-09-27T06:49:46;9.13;;;6.38;;
68866;SDS011;56451;44.804;20.476;2022-09-27T06:52:15;11.27;;;7.55;;
68866;SDS011;56451;44.804;20.476;2022-09-27T06:54:41;9.65;;;7.07;;
68866;SDS011;56451;44.804;20.476;2022-09-27T06:57:07;8.47;;;5.63;;
68866;SDS011;56451;44.804;20.476;2022-09-27T06:59:33;12.50;;;5.03;;
68866;SDS011;56451;44.804;20.476;2022-09-27T07:02:36;12.57;;;4.55;;
68866;SDS011;56451;44.804;20.476;2022-09-27T07:05:15;5.97;;;3.47;;
68866;SDS011;56451;44.804;20.476;2022-09-27T07:08:00;8.60;;;3.40;;
68866;SDS011;56451;44.804;20.476;2022-09-27T07:10:27;6.50;;;3.00;;
68866;SDS011;56451;44.804;20.476;2022-09-27T07:12:54;5.38;;;2.92;;
68866;SDS011;56451;44.804;20.476;2022-09-27T07:15:21;7.47;;;3.42;;
68866;SDS011;56451;44.804;20.476;2022-09-27T07:17:57;6.57;;;3.17;;
68866;SDS011;56451;44.804;20.476;2022-09-27T07:20:26;9.87;;;5.20;;
68866;SDS011;56451;44.804;20.476;2022-09-27T07:22:54;11.85;;;6.22;;
68866;SDS011;56451;44.804;20.476;2022-09-27T07:25:20;8.70;;;5.95;;
68866;SDS011;56451;44.804;20.476;2022-09-27T07:27:48;11.43;;;6.05;;
68866;SDS011;56451;44.804;20.476;2022-09-27T07:30:15;7.68;;;5.70;;
68866;SDS011;56451;44.804;20.476;2022-09-27T07:32:42;12.10;;;5.97;;
68866;SDS011;56451;44.804;20.476;2022-09-27T07:35:09;9.15;;;6.13;;
68866;SDS011;56451;44.804;20.476;2022-09-27T07:37:36;10.45;;;7.25;;
68866;SDS011;56451;44.804;20.476;2022-09-27T07:40:04;11.57;;;6.93;;
68866;SDS011;56451;44.804;20.476;2022-09-27T07:42:33;13.13;;;6.97;;
68866;SDS011;56451;44.804;20.476;2022-09-27T07:44:59;13.23;;;7.13;;
68866;SDS011;56451;44.804;20.476;2022-09-27T07:47:45;12.60;;;7.18;;
68866;SDS011;56451;44.804;20.476;2022-09-27T07:50:21;9.77;;;6.10;;
68866;SDS011;56451;44.804;20.476;2022-09-27T07:53:00;9.73;;;6.35;;
68866;SDS011;56451;44.804;20.476;2022-09-27T07:55:50;10.38;;;6.50;;
68866;SDS011;56451;44.804;20.476;2022-09-27T07:58:26;8.77;;;6.27;;
68866;SDS011;56451;44.804;20.476;2022-09-27T08:00:57;11.48;;;6.35;;
68866;SDS011;56451;44.804;20.476;2022-09-27T08:03:24;14.48;;;7.95;;
68866;SDS011;56451;44.804;20.476;2022-09-27T08:05:51;11.77;;;7.03;;
68866;SDS011;56451;44.804;20.476;2022-09-27T08:08:17;10.43;;;5.68;;
68866;SDS011;56451;44.804;20.476;2022-09-27T08:10:45;9.93;;;5.90;;
68866;SDS011;56451;44.804;20.476;2022-09-27T08:13:13;11.50;;;6.15;;
68866;SDS011;56451;44.804;20.476;2022-09-27T08:15:42;7.85;;;5.60;;
68866;SDS011;56451;44.804;20.476;2022-09-27T08:18:08;9.43;;;6.20;;
68866;SDS011;56451;44.804;20.476;2022-09-27T08:20:57;7.32;;;5.13;;
68866;SDS011;56451;44.804;20.476;2022-09-27T08:23:50;5.13;;;3.93;;
68866;SDS011;56451;44.804;20.476;2022-09-27T08:26:22;6.63;;;3.88;;
68866;SDS011;56451;44.804;20.476;2022-09-27T08:28:55;9.23;;;4.00;;
68866;SDS011;56451;44.804;20.476;2022-09-27T08:31:26;5.88;;;4.07;;
68866;SDS011;56451;44.804;20.476;2022-09-27T08:33:54;6.47;;;4.45;;
68866;SDS011;56451;44.804;20.476;2022-09-27T08:36:21;7.90;;;3.80;;
68866;SDS011;56451;44.804;20.476;2022-09-27T08:38:49;9.25;;;4.30;;
68866;SDS011;56451;44.804;20.476;2022-09-27T08:44:04;7.53;;;4.60;;
68866;SDS011;56451;44.804;20.476;2022-09-27T08:52:26;10.35;;;5.50;;
68866;SDS011;56451;44.804;20.476;2022-09-27T08:55:02;8.18;;;5.60;;
68866;SDS011;56451;44.804;20.476;2022-09-27T08:57:30;7.85;;;5.63;;
68866;SDS011;56451;44.804;20.476;2022-09-27T09:00:05;10.18;;;6.15;;
68866;SDS011;56451;44.804;20.476;2022-09-27T09:02:34;7.23;;;5.03;;
68866;SDS011;56451;44.804;20.476;2022-09-27T09:05:09;6.35;;;4.05;;
68866;SDS011;56451;44.804;20.476;2022-09-27T09:07:57;4.35;;;3.25;;
68866;SDS011;56451;44.804;20.476;2022-09-27T09:10:48;6.28;;;3.78;;
68866;SDS011;56451;44.804;20.476;2022-09-27T09:17:02;5.90;;;3.67;;
68866;SDS011;56451;44.804;20.476;2022-09-27T09:20:23;5.35;;;2.50;;
68866;SDS011;56451;44.804;20.476;2022-09-27T09:34:26;5.55;;;2.85;;
68866;SDS011;56451;44.804;20.476;2022-09-27T09:40:03;7.60;;;4.32;;
68866;SDS011;56451;44.804;20.476;2022-09-27T09:42:39;16.13;;;9.50;;
68866;SDS011;56451;44.804;20.476;2022-09-27T09:48:16;12.50;;;8.57;;
68866;SDS011;56451;44.804;20.476;2022-09-27T09:50:58;12.18;;;7.47;;
68866;SDS011;56451;44.804;20.476;2022-09-27T09:56:06;9.63;;;8.07;;
68866;SDS011;56451;44.804;20.476;2022-09-27T09:58:43;10.70;;;7.87;;
68866;SDS011;56451;44.804;20.476;2022-09-27T10:01:21;7.45;;;6.38;;
68866;SDS011;56451;44.804;20.476;2022-09-27T10:03:50;10.82;;;6.20;;
68866;SDS011;56451;44.804;20.476;2022-09-27T10:06:19;8.95;;;6.00;;
68866;SDS011;56451;44.804;20.476;2022-09-27T10:08:45;10.63;;;6.53;;
68866;SDS011;56451;44.804;20.476;2022-09-27T10:11:24;7.73;;;5.80;;
68866;SDS011;56451;44.804;20.476;2022-09-27T10:14:10;9.43;;;5.47;;
68866;SDS011;56451;44.804;20.476;2022-09-27T10:16:38;6.78;;;5.07;;
68866;SDS011;56451;44.804;20.476;2022-09-27T10:19:12;7.70;;;5.00;;
68866;SDS011;56451;44.804;20.476;2022-09-27T10:21:42;6.50;;;4.28;;
68866;SDS011;56451;44.804;20.476;2022-09-27T10:24:14;6.90;;;4.90;;
68866;SDS011;56451;44.804;20.476;2022-09-27T10:27:01;5.93;;;4.65;;
68866;SDS011;56451;44.804;20.476;2022-09-27T10:29:30;7.28;;;4.75;;
68866;SDS011;56451;44.804;20.476;2022-09-27T10:31:58;7.32;;;4.72;;
68866;SDS011;56451;44.804;20.476;2022-09-27T10:34:36;6.93;;;4.25;;
68866;SDS011;56451;44.804;20.476;2022-09-27T10:39:44;6.05;;;4.10;;
68866;SDS011;56451;44.804;20.476;2022-09-27T10:42:30;7.53;;;3.78;;
68866;SDS011;56451;44.804;20.476;2022-09-27T10:45:06;5.30;;;3.85;;
68866;SDS011;56451;44.804;20.476;2022-09-27T10:48:17;7.25;;;4.10;;
68866;SDS011;56451;44.804;20.476;2022-09-27T10:50:56;5.63;;;4.40;;
68866;SDS011;56451;44.804;20.476;2022-09-27T10:53:44;5.30;;;4.20;;
68866;SDS011;56451;44.804;20.476;2022-09-27T10:56:22;7.13;;;4.68;;
68866;SDS011;56451;44.804;20.476;2022-09-27T10:58:52;6.82;;;4.35;;
68866;SDS011;56451;44.804;20.476;2022-09-27T11:01:21;6.03;;;4.07;;
68866;SDS011;56451;44.804;20.476;2022-09-27T11:04:16;5.40;;;4.00;;
68866;SDS011;56451;44.804;20.476;2022-09-27T11:06:45;5.05;;;3.63;;
68866;SDS011;56451;44.804;20.476;2022-09-27T11:09:17;5.38;;;3.33;;
68866;SDS011;56451;44.804;20.476;2022-09-27T11:11:50;6.80;;;3.78;;
68866;SDS011;56451;44.804;20.476;2022-09-27T11:14:30;5.60;;;3.75;;
68866;SDS011;56451;44.804;20.476;2022-09-27T11:20:43;11.82;;;4.28;;
68866;SDS011;56451;44.804;20.476;2022-09-27T11:33:44;6.20;;;3.58;;
68866;SDS011;56451;44.804;20.476;2022-09-27T11:53:19;6.63;;;3.60;;
68866;SDS011;56451;44.804;20.476;2022-09-27T11:56:18;8.25;;;4.45;;
68866;SDS011;56451;44.804;20.476;2022-09-27T12:10:08;16.80;;;5.43;;
68866;SDS011;56451;44.804;20.476;2022-09-27T12:12:39;10.23;;;5.20;;
68866;SDS011;56451;44.804;20.476;2022-09-27T12:15:14;8.93;;;4.15;;
68866;SDS011;56451;44.804;20.476;2022-09-27T12:17:44;5.55;;;4.22;;
68866;SDS011;56451;44.804;20.476;2022-09-27T12:20:22;6.10;;;4.57;;
68866;SDS011;56451;44.804;20.476;2022-09-27T12:25:28;8.47;;;5.90;;
68866;SDS011;56451;44.804;20.476;2022-09-27T12:28:02;10.55;;;6.15;;
68866;SDS011;56451;44.804;20.476;2022-09-27T12:30:33;9.05;;;6.60;;
68866;SDS011;56451;44.804;20.476;2022-09-27T12:33:08;10.43;;;7.40;;
68866;SDS011;56451;44.804;20.476;2022-09-27T12:35:48;12.70;;;7.57;;
68866;SDS011;56451;44.804;20.476;2022-09-27T12:41:10;11.73;;;7.55;;
68866;SDS011;56451;44.804;20.476;2022-09-27T12:43:55;9.90;;;8.05;;
68866;SDS011;56451;44.804;20.476;2022-09-27T12:51:48;14.10;;;10.90;;
68866;SDS011;56451;44.804;20.476;2022-09-27T12:54:22;15.23;;;12.13;;
68866;SDS011;56451;44.804;20.476;2022-09-27T12:57:04;22.55;;;15.63;;
68866;SDS011;56451;44.804;20.476;2022-09-27T12:59:55;29.05;;;20.27;;
68866;SDS011;56451;44.804;20.476;2022-09-27T13:02:48;13.88;;;6.45;;
68866;SDS011;56451;44.804;20.476;2022-09-27T13:08:20;7.22;;;2.20;;
68866;SDS011;56451;44.804;20.476;2022-09-27T13:11:28;5.43;;;1.10;;
68866;SDS011;56451;44.804;20.476;2022-09-27T13:13:56;2.97;;;1.00;;
68866;SDS011;56451;44.804;20.476;2022-09-27T13:16:24;3.05;;;0.80;;
68866;SDS011;56451;44.804;20.476;2022-09-27T13:18:52;3.00;;;0.80;;
68866;SDS011;56451;44.804;20.476;2022-09-27T13:24:41;3.60;;;1.40;;
68866;SDS011;56451;44.804;20.476;2022-09-27T13:29:48;2.88;;;1.45;;
68866;SDS011;56451;44.804;20.476;2022-09-27T13:32:26;8.13;;;2.10;;
68866;SDS011;56451;44.804;20.476;2022-09-27T13:35:17;4.80;;;1.48;;
68866;SDS011;56451;44.804;20.476;2022-09-27T13:37:55;2.10;;;1.30;;
68866;SDS011;56451;44.804;20.476;2022-09-27T13:40:34;5.20;;;1.75;;
68866;SDS011;56451;44.804;20.476;2022-09-27T13:43:38;4.50;;;1.80;;
68866;SDS011;56451;44.804;20.476;2022-09-27T13:46:24;2.47;;;1.63;;
68866;SDS011;56451;44.804;20.476;2022-09-27T13:48:57;3.58;;;1.70;;
68866;SDS011;56451;44.804;20.476;2022-09-27T13:51:58;6.78;;;2.40;;
68866;SDS011;56451;44.804;20.476;2022-09-27T13:54:36;3.75;;;2.20;;
68866;SDS011;56451;44.804;20.476;2022-09-27T14:02:50;4.00;;;1.90;;
68866;SDS011;56451;44.804;20.476;2022-09-27T14:05:25;2.97;;;1.90;;
68866;SDS011;56451;44.804;20.476;2022-09-27T14:07:55;3.83;;;1.88;;
68866;SDS011;56451;44.804;20.476;2022-09-27T14:10:25;5.68;;;2.10;;
68866;SDS011;56451;44.804;20.476;2022-09-27T14:12:53;4.97;;;2.80;;
68866;SDS011;56451;44.804;20.476;2022-09-27T14:15:24;4.55;;;2.30;;
68866;SDS011;56451;44.804;20.476;2022-09-27T14:17:52;7.00;;;2.67;;
68866;SDS011;56451;44.804;20.476;2022-09-27T14:20:37;10.02;;;3.67;;
68866;SDS011;56451;44.804;20.476;2022-09-27T14:23:17;6.18;;;3.08;;
68866;SDS011;56451;44.804;20.476;2022-09-27T14:25:48;6.23;;;3.43;;
68866;SDS011;56451;44.804;20.476;2022-09-27T14:28:22;5.32;;;3.13;;
68866;SDS011;56451;44.804;20.476;2022-09-27T14:31:22;5.93;;;3.00;;
68866;SDS011;56451;44.804;20.476;2022-09-27T14:34:12;4.78;;;2.50;;
68866;SDS011;56451;44.804;20.476;2022-09-27T14:36:42;4.35;;;2.22;;
68866;SDS011;56451;44.804;20.476;2022-09-27T14:39:31;5.73;;;2.80;;
68866;SDS011;56451;44.804;20.476;2022-09-27T14:42:15;5.32;;;3.05;;
68866;SDS011;56451;44.804;20.476;2022-09-27T14:44:44;6.53;;;3.72;;
68866;SDS011;56451;44.804;20.476;2022-09-27T14:49:49;7.03;;;3.65;;
68866;SDS011;56451;44.804;20.476;2022-09-27T14:52:23;7.77;;;4.07;;
68866;SDS011;56451;44.804;20.476;2022-09-27T14:54:57;5.45;;;3.38;;
68866;SDS011;56451;44.804;20.476;2022-09-27T14:57:25;7.45;;;3.70;;
68866;SDS011;56451;44.804;20.476;2022-09-27T14:59:52;5.93;;;4.07;;
68866;SDS011;56451;44.804;20.476;2022-09-27T15:02:20;7.03;;;3.70;;
68866;SDS011;56451;44.804;20.476;2022-09-27T15:04:50;6.27;;;3.33;;
68866;SDS011;56451;44.804;20.476;2022-09-27T15:07:17;7.90;;;3.28;;
68866;SDS011;56451;44.804;20.476;2022-09-27T15:09:44;6.75;;;3.42;;
68866;SDS011;56451;44.804;20.476;2022-09-27T15:12:15;5.63;;;3.30;;
68866;SDS011;56451;44.804;20.476;2022-09-27T15:14:48;7.20;;;3.67;;
68866;SDS011;56451;44.804;20.476;2022-09-27T15:17:15;6.80;;;3.57;;
68866;SDS011;56451;44.804;20.476;2022-09-27T15:19:54;7.45;;;3.42;;
68866;SDS011;56451;44.804;20.476;2022-09-27T15:22:43;6.80;;;3.92;;
68866;SDS011;56451;44.804;20.476;2022-09-27T15:27:57;6.10;;;3.78;;
68866;SDS011;56451;44.804;20.476;2022-09-27T15:30:28;4.97;;;3.60;;
68866;SDS011;56451;44.804;20.476;2022-09-27T15:32:59;8.75;;;4.20;;
68866;SDS011;56451;44.804;20.476;2022-09-27T15:35:27;8.07;;;4.47;;
68866;SDS011;56451;44.804;20.476;2022-09-27T15:38:20;7.70;;;4.20;;
68866;SDS011;56451;44.804;20.476;2022-09-27T15:43:25;8.70;;;4.43;;
68866;SDS011;56451;44.804;20.476;2022-09-27T15:46:00;5.47;;;3.97;;
68866;SDS011;56451;44.804;20.476;2022-09-27T15:48:29;6.63;;;4.13;;
68866;SDS011;56451;44.804;20.476;2022-09-27T15:50:56;7.40;;;4.10;;
68866;SDS011;56451;44.804;20.476;2022-09-27T15:55:57;8.60;;;4.65;;
68866;SDS011;56451;44.804;20.476;2022-09-27T15:58:24;5.88;;;4.00;;
68866;SDS011;56451;44.804;20.476;2022-09-27T16:01:00;10.18;;;4.47;;
68866;SDS011;56451;44.804;20.476;2022-09-27T16:03:27;7.60;;;4.37;;
68866;SDS011;56451;44.804;20.476;2022-09-27T16:05:57;7.68;;;4.10;;
68866;SDS011;56451;44.804;20.476;2022-09-27T16:08:27;6.18;;;3.88;;
68866;SDS011;56451;44.804;20.476;2022-09-27T16:10:54;7.00;;;3.63;;
68866;SDS011;56451;44.804;20.476;2022-09-27T16:13:24;4.63;;;3.22;;
68866;SDS011;56451;44.804;20.476;2022-09-27T16:15:54;4.77;;;3.23;;
68866;SDS011;56451;44.804;20.476;2022-09-27T16:18:26;7.90;;;3.25;;
68866;SDS011;56451;44.804;20.476;2022-09-27T16:20:56;6.90;;;3.40;;
68866;SDS011;56451;44.804;20.476;2022-09-27T16:23:26;5.43;;;3.30;;
68866;SDS011;56451;44.804;20.476;2022-09-27T16:25:56;7.55;;;3.47;;
68866;SDS011;56451;44.804;20.476;2022-09-27T16:28:28;6.47;;;4.23;;
68866;SDS011;56451;44.804;20.476;2022-09-27T16:31:00;6.38;;;4.13;;
68866;SDS011;56451;44.804;20.476;2022-09-27T16:33:28;7.68;;;4.47;;
68866;SDS011;56451;44.804;20.476;2022-09-27T16:35:55;7.75;;;4.60;;
68866;SDS011;56451;44.804;20.476;2022-09-27T16:38:21;8.27;;;4.70;;
68866;SDS011;56451;44.804;20.476;2022-09-27T16:40:50;9.73;;;5.13;;
68866;SDS011;56451;44.804;20.476;2022-09-27T16:43:16;6.28;;;5.18;;
68866;SDS011;56451;44.804;20.476;2022-09-27T16:45:42;7.40;;;4.70;;
68866;SDS011;56451;44.804;20.476;2022-09-27T16:48:08;9.90;;;5.37;;
68866;SDS011;56451;44.804;20.476;2022-09-27T16:50:34;10.07;;;6.13;;
68866;SDS011;56451;44.804;20.476;2022-09-27T16:53:18;12.68;;;6.55;;
68866;SDS011;56451;44.804;20.476;2022-09-27T16:55:44;11.52;;;6.10;;
68866;SDS011;56451;44.804;20.476;2022-09-27T16:58:10;11.60;;;6.23;;
68866;SDS011;56451;44.804;20.476;2022-09-27T17:00:36;9.52;;;6.20;;
68866;SDS011;56451;44.804;20.476;2022-09-27T17:03:02;10.93;;;6.82;;
68866;SDS011;56451;44.804;20.476;2022-09-27T17:05:29;10.90;;;6.40;;
68866;SDS011;56451;44.804;20.476;2022-09-27T17:07:56;10.50;;;5.85;;
68866;SDS011;56451;44.804;20.476;2022-09-27T17:10:21;10.87;;;6.30;;
68866;SDS011;56451;44.804;20.476;2022-09-27T17:12:48;11.02;;;6.18;;
68866;SDS011;56451;44.804;20.476;2022-09-27T17:15:14;11.80;;;6.05;;
68866;SDS011;56451;44.804;20.476;2022-09-27T17:17:41;14.20;;;6.68;;
68866;SDS011;56451;44.804;20.476;2022-09-27T17:20:07;11.60;;;6.40;;
68866;SDS011;56451;44.804;20.476;2022-09-27T17:22:33;9.73;;;6.75;;
68866;SDS011;56451;44.804;20.476;2022-09-27T17:24:59;11.10;;;6.55;;
68866;SDS011;56451;44.804;20.476;2022-09-27T17:27:26;11.40;;;6.68;;
68866;SDS011;56451;44.804;20.476;2022-09-27T17:29:53;10.93;;;6.13;;
68866;SDS011;56451;44.804;20.476;2022-09-27T17:32:19;11.48;;;6.20;;
68866;SDS011;56451;44.804;20.476;2022-09-27T17:34:49;11.25;;;5.82;;